Time;durP1;ratioP1;P1;durP2;ratioP2;P2;SDS_P1;SDS_P2;PMS_P1;PMS_P2;Temp;Humidity;BMP_temperature;BMP_pressure;BME280_temperature;BME280_humidity;BME280_pressure;Samples;Min_cycle;Max_cycle;Signal;HPM_P1;HPM_P2
2023/03/28 00:01:17;;;;;;;11.20;7.93;;;-0.30;99.90;;;;;;5095041;28;20489;-71
2023/03/28 00:03:45;;;;;;;8.20;7.50;;;-0.30;99.90;;;;;;5101402;28;20495;-70
2023/03/28 00:06:15;;;;;;;10.70;7.57;;;-0.30;99.90;;;;;;5096786;28;20857;-70
2023/03/28 00:08:44;;;;;;;9.47;7.17;;;-0.40;99.90;;;;;;5097359;28;20555;-71
2023/03/28 00:11:17;;;;;;;8.50;7.70;;;-0.40;99.90;;;;;;5095356;28;20471;-70
2023/03/28 00:13:47;;;;;;;24.27;8.00;;;-0.40;99.90;;;;;;5094506;28;20482;-70
2023/03/28 00:16:15;;;;;;;9.33;7.73;;;-0.40;99.90;;;;;;5095217;28;20839;-70
2023/03/28 00:18:42;;;;;;;10.97;7.43;;;-0.50;99.90;;;;;;5098030;28;20470;-70
2023/03/28 00:21:22;;;;;;;7.37;6.87;;;-0.40;99.90;;;;;;5091354;28;20511;-71
2023/03/28 00:23:51;;;;;;;8.37;7.60;;;-0.40;99.90;;;;;;5095254;28;20467;-71
2023/03/28 00:26:19;;;;;;;9.30;8.27;;;-0.50;99.90;;;;;;5094126;28;20453;-70
2023/03/28 00:28:46;;;;;;;8.97;7.70;;;-0.50;99.90;;;;;;5090751;28;20460;-70
2023/03/28 00:31:14;;;;;;;15.63;7.50;;;-0.50;99.90;;;;;;5094003;28;20500;-71
2023/03/28 00:33:42;;;;;;;9.07;8.00;;;-0.60;99.90;;;;;;5091209;28;20970;-70
2023/03/28 00:36:10;;;;;;;10.00;7.40;;;-0.60;99.90;;;;;;5098717;28;20461;-70
2023/03/28 00:38:37;;;;;;;8.63;7.80;;;-0.60;99.90;;;;;;5097114;28;20473;-71
2023/03/28 00:41:04;;;;;;;10.27;6.80;;;-0.60;99.90;;;;;;5097547;28;20517;-70
2023/03/28 00:43:42;;;;;;;10.83;8.30;;;-0.70;99.90;;;;;;5092114;27;20739;-70
2023/03/28 00:46:17;;;;;;;10.80;7.40;;;-0.70;99.90;;;;;;5092143;28;20460;-71
2023/03/28 00:48:51;;;;;;;8.50;7.13;;;-0.70;99.90;;;;;;5089713;28;20864;-70
2023/03/28 00:51:20;;;;;;;7.70;6.90;;;-0.70;99.90;;;;;;5090693;28;20585;-71
2023/03/28 00:53:49;;;;;;;15.30;7.97;;;-0.80;99.90;;;;;;5095040;28;20991;-71
2023/03/28 00:56:17;;;;;;;7.73;7.23;;;-0.90;99.90;;;;;;5091197;28;20476;-72
2023/03/28 00:58:47;;;;;;;8.40;7.37;;;-0.90;99.90;;;;;;5087928;28;20551;-71
2023/03/28 01:01:18;;;;;;;8.50;7.67;;;-1.00;99.90;;;;;;5092911;28;20919;-70
2023/03/28 01:03:51;;;;;;;11.27;7.27;;;-1.10;99.90;;;;;;5094829;28;20830;-71
2023/03/28 01:06:21;;;;;;;8.70;8.00;;;-1.10;99.90;;;;;;5090397;28;20540;-70
2023/03/28 01:08:49;;;;;;;9.07;7.37;;;-1.00;99.90;;;;;;5091988;28;20873;-70
2023/03/28 01:11:17;;;;;;;8.47;7.63;;;-1.00;99.90;;;;;;5096796;28;20470;-70
2023/03/28 01:13:48;;;;;;;7.80;7.00;;;-1.10;99.90;;;;;;5093183;28;21501;-70
2023/03/28 01:16:18;;;;;;;8.40;7.80;;;-1.10;99.90;;;;;;5090310;28;20457;-70
2023/03/28 01:18:50;;;;;;;8.33;7.50;;;-1.30;99.90;;;;;;5098260;28;20461;-70
2023/03/28 01:21:53;;;;;;;9.43;7.50;;;-1.40;99.90;;;;;;5094138;28;20468;-70
2023/03/28 01:24:43;;;;;;;11.90;8.00;;;-1.40;99.90;;;;;;5093311;28;20483;-70
2023/03/28 01:27:15;;;;;;;14.67;8.70;;;-1.40;99.90;;;;;;5094369;28;20471;-70
2023/03/28 01:30:22;;;;;;;11.90;8.23;;;-1.40;99.90;;;;;;5092079;28;20461;-70
2023/03/28 01:33:18;;;;;;;9.80;8.03;;;-1.40;99.90;;;;;;5083958;28;20832;-70
2023/03/28 01:36:21;;;;;;;11.87;7.70;;;-1.50;99.90;;;;;;5089622;28;20473;-70
2023/03/28 01:38:59;;;;;;;11.20;8.20;;;-1.40;99.90;;;;;;5089370;28;20454;-70
2023/03/28 01:41:34;;;;;;;12.90;7.40;;;-1.30;99.90;;;;;;5088692;28;20465;-71
2023/03/28 01:44:08;;;;;;;8.03;7.33;;;-1.20;99.90;;;;;;5089606;28;20470;-70
2023/03/28 01:46:38;;;;;;;14.03;7.10;;;-1.20;99.90;;;;;;5090993;28;20832;-70
2023/03/28 01:49:10;;;;;;;8.17;7.50;;;-1.10;99.90;;;;;;5094918;28;20512;-71
2023/03/28 01:51:48;;;;;;;7.33;6.83;;;-1.00;99.90;;;;;;5091866;28;20551;-70
2023/03/28 01:54:28;;;;;;;10.47;8.80;;;-0.90;99.90;;;;;;5089361;28;20466;-70
2023/03/28 01:57:00;;;;;;;10.60;7.47;;;-0.80;99.90;;;;;;5089521;28;20472;-70
2023/03/28 01:59:33;;;;;;;11.13;8.40;;;-0.60;99.90;;;;;;5088836;28;20487;-70
2023/03/28 02:02:07;;;;;;;8.33;7.53;;;-0.60;99.90;;;;;;5089577;28;20499;-70
2023/03/28 02:04:36;;;;;;;14.97;7.83;;;-0.60;99.90;;;;;;5088444;28;20468;-70
2023/03/28 02:07:04;;;;;;;11.63;9.00;;;-0.50;99.90;;;;;;5093151;28;20457;-70
2023/03/28 02:09:36;;;;;;;16.50;8.80;;;-0.50;99.90;;;;;;5087761;28;20457;-71
2023/03/28 02:12:08;;;;;;;15.40;9.07;;;-0.50;99.90;;;;;;5091097;28;20507;-70
2023/03/28 02:14:40;;;;;;;13.00;9.63;;;-0.50;99.90;;;;;;5086452;28;20466;-71
2023/03/28 02:17:14;;;;;;;14.20;8.57;;;-0.60;99.90;;;;;;5089429;28;20539;-70
2023/03/28 02:19:45;;;;;;;10.37;9.27;;;-0.60;99.90;;;;;;5089348;28;20461;-70
2023/03/28 02:22:18;;;;;;;9.43;8.43;;;-0.70;99.90;;;;;;5097893;28;20489;-71
2023/03/28 02:24:50;;;;;;;10.00;8.43;;;-0.80;99.90;;;;;;5094899;28;20955;-71
2023/03/28 02:27:18;;;;;;;10.07;9.27;;;-0.80;99.90;;;;;;5095230;28;20463;-70
2023/03/28 02:29:45;;;;;;;20.57;9.90;;;-0.80;99.90;;;;;;5094206;28;20753;-70
2023/03/28 02:32:13;;;;;;;10.83;9.00;;;-0.90;99.90;;;;;;5088186;28;20486;-71
2023/03/28 02:34:40;;;;;;;18.53;8.70;;;-0.90;99.90;;;;;;5099257;28;20549;-71
2023/03/28 02:37:20;;;;;;;12.87;9.00;;;-1.00;99.90;;;;;;5096569;28;20463;-70
2023/03/28 02:39:54;;;;;;;17.33;8.77;;;-1.00;99.90;;;;;;5091808;28;20552;-70
2023/03/28 02:42:42;;;;;;;8.93;8.33;;;-1.10;99.90;;;;;;5091199;28;20491;-70
2023/03/28 02:45:28;;;;;;;11.87;10.73;;;-1.10;99.90;;;;;;5086120;28;20975;-70
2023/03/28 02:48:08;;;;;;;13.60;9.83;;;-1.20;99.90;;;;;;5090887;28;20465;-70
2023/03/28 02:50:41;;;;;;;10.93;9.83;;;-1.10;99.90;;;;;;5095610;28;20450;-70
2023/03/28 02:53:13;;;;;;;10.47;9.43;;;-1.10;99.90;;;;;;5087496;28;20951;-70
2023/03/28 02:55:53;;;;;;;13.80;9.97;;;-1.10;99.90;;;;;;5089401;28;20459;-70
2023/03/28 02:58:26;;;;;;;13.00;9.57;;;-1.10;99.90;;;;;;5100272;28;20547;-70
2023/03/28 03:00:53;;;;;;;12.43;9.17;;;-1.00;99.90;;;;;;5089014;28;20481;-70
2023/03/28 03:03:22;;;;;;;13.33;10.07;;;-0.90;99.90;;;;;;5090892;28;20491;-70
2023/03/28 03:05:49;;;;;;;15.10;9.60;;;-1.00;99.90;;;;;;5087309;28;20982;-70
2023/03/28 03:08:16;;;;;;;15.87;10.37;;;-0.90;99.90;;;;;;5097627;28;20468;-71
2023/03/28 03:10:44;;;;;;;10.83;9.37;;;-0.90;99.90;;;;;;5098238;28;20453;-70
2023/03/28 03:13:11;;;;;;;15.07;9.27;;;-0.90;99.90;;;;;;5093016;28;20454;-70
2023/03/28 03:15:40;;;;;;;10.47;9.50;;;-0.90;99.90;;;;;;5091051;28;20461;-70
2023/03/28 03:18:07;;;;;;;9.93;8.17;;;-0.80;99.90;;;;;;5088396;28;20545;-70
2023/03/28 03:20:34;;;;;;;11.20;8.30;;;-0.90;99.90;;;;;;5097331;28;20459;-70
2023/03/28 03:23:01;;;;;;;8.67;7.70;;;-0.90;99.90;;;;;;5096527;28;20488;-70
2023/03/28 03:25:30;;;;;;;13.70;8.70;;;-0.90;99.90;;;;;;5090539;28;20465;-70
2023/03/28 03:27:58;;;;;;;11.37;8.93;;;-0.90;99.90;;;;;;5089235;28;20941;-70
2023/03/28 03:30:24;;;;;;;8.73;7.83;;;-0.80;99.90;;;;;;5088275;28;20472;-70
2023/03/28 03:32:51;;;;;;;9.87;8.33;;;-0.80;99.90;;;;;;5086957;28;20470;-70
2023/03/28 03:35:19;;;;;;;8.87;8.03;;;-0.90;99.90;;;;;;5095523;28;20456;-70
2023/03/28 03:37:49;;;;;;;11.20;8.60;;;-0.80;99.90;;;;;;5095133;28;20559;-70
2023/03/28 03:40:17;;;;;;;9.90;8.90;;;-0.80;99.90;;;;;;5096991;28;20462;-70
2023/03/28 03:42:44;;;;;;;10.87;9.20;;;-0.80;99.90;;;;;;5093405;28;20509;-71
2023/03/28 03:45:12;;;;;;;8.80;8.00;;;-0.90;99.90;;;;;;5091559;28;21005;-70
2023/03/28 03:47:39;;;;;;;10.40;9.17;;;-1.00;99.90;;;;;;5093797;28;20458;-70
2023/03/28 03:50:08;;;;;;;14.13;9.03;;;-0.90;99.90;;;;;;5098212;28;20467;-70
2023/03/28 03:52:35;;;;;;;11.90;8.43;;;-1.00;99.90;;;;;;5093328;28;20465;-70
2023/03/28 03:55:02;;;;;;;15.47;8.80;;;-1.00;99.90;;;;;;5090063;28;20986;-70
2023/03/28 03:57:30;;;;;;;12.83;9.13;;;-1.00;99.90;;;;;;5091967;28;20473;-71
2023/03/28 03:59:57;;;;;;;11.03;9.57;;;-1.10;99.90;;;;;;5097754;28;20517;-70
2023/03/28 04:02:25;;;;;;;11.93;8.60;;;-1.10;99.90;;;;;;5098079;28;20473;-70
2023/03/28 04:04:52;;;;;;;12.27;9.10;;;-1.10;99.90;;;;;;5089845;28;20543;-70
2023/03/28 04:07:19;;;;;;;10.17;9.07;;;-1.10;99.90;;;;;;5093185;28;20469;-70
2023/03/28 04:09:46;;;;;;;12.30;8.53;;;-1.10;99.90;;;;;;5091228;28;20465;-70
2023/03/28 04:12:12;;;;;;;9.40;8.60;;;-1.10;99.90;;;;;;5091673;28;21074;-70
2023/03/28 04:14:39;;;;;;;12.57;9.50;;;-1.20;99.90;;;;;;5095155;28;20491;-71
2023/03/28 04:17:06;;;;;;;12.67;9.00;;;-1.20;99.90;;;;;;5088006;28;20462;-71
2023/03/28 04:19:38;;;;;;;11.03;9.40;;;-1.20;99.90;;;;;;5088175;28;20465;-70
2023/03/28 04:22:07;;;;;;;14.17;8.90;;;-1.10;99.90;;;;;;5088502;28;20463;-70
2023/03/28 04:24:36;;;;;;;14.83;9.47;;;-1.20;99.90;;;;;;5095725;28;20913;-70
2023/03/28 04:27:02;;;;;;;19.53;9.53;;;-1.20;99.90;;;;;;5092449;28;20974;-70
2023/03/28 04:29:31;;;;;;;10.73;9.03;;;-1.30;99.90;;;;;;5097625;28;20941;-70
2023/03/28 04:31:58;;;;;;;9.67;8.77;;;-1.30;99.90;;;;;;5093316;28;20476;-70
2023/03/28 04:34:28;;;;;;;9.40;8.40;;;-1.30;99.90;;;;;;5086284;28;20465;-70
2023/03/28 04:37:00;;;;;;;11.77;8.67;;;-1.30;99.90;;;;;;5095903;28;20468;-70
2023/03/28 04:39:28;;;;;;;12.70;8.97;;;-1.30;99.90;;;;;;5092964;28;20490;-70
2023/03/28 04:41:56;;;;;;;15.63;10.13;;;-1.40;99.90;;;;;;5091328;28;21021;-70
2023/03/28 04:44:23;;;;;;;13.67;8.93;;;-1.40;99.90;;;;;;5093949;28;20493;-70
2023/03/28 04:46:50;;;;;;;14.43;9.60;;;-1.40;99.90;;;;;;5088198;28;20481;-70
2023/03/28 04:49:18;;;;;;;12.50;8.80;;;-1.40;99.90;;;;;;5098467;28;20510;-70
2023/03/28 04:51:45;;;;;;;10.90;9.00;;;-1.40;99.90;;;;;;5098902;28;20579;-70
2023/03/28 04:54:13;;;;;;;15.63;8.20;;;-1.30;99.90;;;;;;5093291;28;20831;-70
2023/03/28 04:56:44;;;;;;;10.00;9.00;;;-1.20;99.90;;;;;;5088055;28;20459;-70
2023/03/28 04:59:12;;;;;;;12.10;8.90;;;-1.20;99.90;;;;;;5085070;28;20469;-70
2023/03/28 05:01:40;;;;;;;12.10;9.30;;;-1.30;99.90;;;;;;5087993;28;21134;-70
2023/03/28 05:04:07;;;;;;;19.03;9.30;;;-1.30;99.90;;;;;;5095848;28;20489;-70
2023/03/28 05:06:34;;;;;;;12.00;8.10;;;-1.30;99.90;;;;;;5097019;28;20844;-70
2023/03/28 05:09:01;;;;;;;14.03;9.87;;;-1.40;99.90;;;;;;5094829;28;20491;-71
2023/03/28 05:11:30;;;;;;;10.07;8.77;;;-1.40;99.90;;;;;;5089907;28;20462;-70
2023/03/28 05:13:56;;;;;;;11.00;9.90;;;-1.60;99.90;;;;;;5091409;28;20582;-70
2023/03/28 05:16:23;;;;;;;9.50;8.67;;;-1.80;99.90;;;;;;5086321;28;20469;-70
2023/03/28 05:18:50;;;;;;;20.13;8.43;;;-1.80;99.90;;;;;;5090250;28;20470;-70
2023/03/28 05:21:17;;;;;;;9.90;8.97;;;-1.90;99.90;;;;;;5089526;28;20470;-70
2023/03/28 05:23:43;;;;;;;10.10;9.20;;;-1.90;99.90;;;;;;5094717;28;20897;-70
2023/03/28 05:26:11;;;;;;;11.87;10.03;;;-2.00;99.90;;;;;;5086130;28;20478;-70
2023/03/28 05:28:39;;;;;;;17.50;9.23;;;-2.00;99.90;;;;;;5090920;28;20487;-70
2023/03/28 05:31:07;;;;;;;11.13;10.03;;;-2.00;99.90;;;;;;5094452;28;20509;-70
2023/03/28 05:33:35;;;;;;;11.90;9.60;;;-1.90;99.90;;;;;;5097090;28;20471;-70
2023/03/28 05:36:03;;;;;;;11.73;10.63;;;-1.70;99.90;;;;;;5096279;28;20884;-71
2023/03/28 05:38:32;;;;;;;11.03;10.13;;;-1.70;99.90;;;;;;5097199;28;20468;-70
2023/03/28 05:40:59;;;;;;;13.90;10.37;;;-1.70;99.90;;;;;;5086566;28;20462;-70
2023/03/28 05:43:26;;;;;;;11.03;9.87;;;-1.70;99.90;;;;;;5092316;28;21087;-71
2023/03/28 05:45:54;;;;;;;15.80;10.67;;;-1.50;99.90;;;;;;5090731;28;20644;-70
2023/03/28 05:48:21;;;;;;;16.00;11.50;;;-1.50;99.90;;;;;;5086952;28;20495;-70
2023/03/28 05:50:49;;;;;;;16.93;12.37;;;-1.40;99.90;;;;;;5095378;28;20458;-70
2023/03/28 05:53:16;;;;;;;18.83;11.83;;;-1.40;99.90;;;;;;5091713;28;20477;-72
2023/03/28 05:55:43;;;;;;;27.40;11.87;;;-1.30;99.90;;;;;;5095161;28;20453;-70
2023/03/28 05:58:10;;;;;;;17.57;11.07;;;-1.20;99.90;;;;;;5090339;28;20872;-70
2023/03/28 06:00:37;;;;;;;12.00;10.80;;;-1.20;99.90;;;;;;5086113;28;20556;-70
2023/03/28 06:03:06;;;;;;;16.27;11.17;;;-1.10;99.90;;;;;;5096033;28;20492;-68
2023/03/28 06:05:32;;;;;;;18.03;10.20;;;-1.10;99.90;;;;;;5095689;28;20532;-69
2023/03/28 06:07:59;;;;;;;12.23;11.23;;;-1.00;99.90;;;;;;5092442;28;20473;-69
2023/03/28 06:10:26;;;;;;;16.23;10.53;;;-0.90;99.90;;;;;;5092915;28;20468;-69
2023/03/28 06:12:53;;;;;;;18.80;10.87;;;-0.80;99.90;;;;;;5090672;28;20518;-69
2023/03/28 06:15:21;;;;;;;16.60;10.40;;;-0.80;99.90;;;;;;5094092;28;20457;-69
2023/03/28 06:17:48;;;;;;;12.27;11.17;;;-0.70;99.90;;;;;;5089692;28;20493;-69
2023/03/28 06:20:16;;;;;;;13.63;12.10;;;-0.70;99.90;;;;;;5089606;28;21008;-70
2023/03/28 06:22:43;;;;;;;18.87;10.73;;;-0.70;99.90;;;;;;5095016;28;20490;-69
2023/03/28 06:25:10;;;;;;;14.37;11.80;;;-0.70;99.90;;;;;;5089675;28;20468;-69
2023/03/28 06:27:38;;;;;;;16.50;13.50;;;-0.50;99.90;;;;;;5088070;28;20461;-68
2023/03/28 06:30:06;;;;;;;14.30;12.17;;;-0.40;99.90;;;;;;5094433;28;20464;-69
2023/03/28 06:32:33;;;;;;;15.33;12.90;;;-0.30;99.90;;;;;;5090964;28;20481;-69
2023/03/28 06:34:59;;;;;;;16.23;12.60;;;-0.30;99.90;;;;;;5090191;28;20461;-69
2023/03/28 06:37:27;;;;;;;13.00;11.70;;;-0.20;99.90;;;;;;5088021;28;20456;-69
2023/03/28 06:39:55;;;;;;;17.70;12.10;;;-0.10;99.90;;;;;;5083985;28;20464;-69
2023/03/28 06:42:22;;;;;;;23.43;11.60;;;-0.10;99.90;;;;;;5088410;28;20549;-71
2023/03/28 06:44:49;;;;;;;16.50;11.03;;;-0.20;99.90;;;;;;5093657;28;20564;-69
2023/03/28 06:47:16;;;;;;;18.33;12.97;;;-0.10;99.90;;;;;;5088179;28;20572;-69
2023/03/28 06:49:43;;;;;;;17.43;13.60;;;0.10;99.90;;;;;;5088917;28;20464;-69
2023/03/28 06:52:10;;;;;;;14.33;12.83;;;0.20;99.90;;;;;;5087155;28;20465;-69
2023/03/28 06:54:39;;;;;;;15.07;13.60;;;0.40;99.90;;;;;;5093465;28;20468;-69
2023/03/28 06:57:06;;;;;;;15.20;13.77;;;0.60;99.90;;;;;;5092591;28;20461;-70
2023/03/28 06:59:33;;;;;;;22.10;13.57;;;0.70;99.90;;;;;;5091301;28;20454;-70
2023/03/28 07:02:00;;;;;;;16.03;14.57;;;0.90;99.90;;;;;;5085237;28;20458;-70
2023/03/28 07:04:27;;;;;;;15.97;14.53;;;1.00;99.90;;;;;;5091595;28;20488;-70
2023/03/28 07:06:54;;;;;;;17.43;15.23;;;1.10;99.90;;;;;;5085849;28;20480;-70
2023/03/28 07:09:21;;;;;;;18.40;16.50;;;1.20;99.90;;;;;;5086820;28;20840;-70
2023/03/28 07:11:49;;;;;;;18.20;16.60;;;1.40;99.90;;;;;;5084405;28;20461;-70
2023/03/28 07:14:16;;;;;;;21.43;18.83;;;1.40;99.90;;;;;;5091951;28;20465;-69
2023/03/28 07:16:44;;;;;;;20.07;18.17;;;1.50;99.90;;;;;;5088949;28;20827;-69
2023/03/28 07:19:11;;;;;;;20.07;18.20;;;1.70;99.90;;;;;;5091134;28;20990;-69
2023/03/28 07:21:37;;;;;;;20.70;18.73;;;1.80;99.90;;;;;;5094580;28;20470;-68
2023/03/28 07:24:05;;;;;;;28.70;19.63;;;1.90;99.90;;;;;;5089051;28;20476;-69
2023/03/28 07:26:32;;;;;;;24.33;22.27;;;1.90;99.90;;;;;;5087299;28;20881;-68
2023/03/28 07:29:00;;;;;;;23.03;21.00;;;2.00;99.90;;;;;;5094405;28;20497;-68
2023/03/28 07:31:26;;;;;;;27.03;21.23;;;2.10;99.90;;;;;;5092238;28;20484;-69
2023/03/28 07:33:56;;;;;;;33.70;21.70;;;2.10;99.90;;;;;;5092748;28;20461;-69
2023/03/28 07:36:26;;;;;;;34.60;21.90;;;2.10;99.90;;;;;;5093789;28;20462;-69
2023/03/28 07:38:53;;;;;;;22.27;19.60;;;2.20;99.90;;;;;;5092365;28;20568;-69
2023/03/28 07:41:21;;;;;;;22.53;20.40;;;2.30;99.90;;;;;;5088202;28;20461;-69
2023/03/28 07:43:48;;;;;;;38.57;21.50;;;2.40;99.90;;;;;;5095723;28;20491;-69
2023/03/28 07:46:16;;;;;;;20.10;18.57;;;2.50;99.90;;;;;;5094121;28;20964;-69
2023/03/28 07:48:45;;;;;;;29.30;19.97;;;2.60;99.90;;;;;;5097243;28;21335;-69
2023/03/28 07:51:12;;;;;;;21.07;18.87;;;2.70;99.90;;;;;;5091771;28;20553;-68
2023/03/28 07:53:39;;;;;;;84.53;24.63;;;2.70;99.90;;;;;;5088764;28;20457;-68
2023/03/28 07:56:10;;;;;;;17.90;16.30;;;2.80;99.90;;;;;;5082382;28;20947;-69
2023/03/28 07:58:38;;;;;;;20.03;16.50;;;2.90;99.90;;;;;;5072242;28;20872;-69
2023/03/28 08:01:06;;;;;;;17.87;16.00;;;3.00;99.90;;;;;;5076546;28;20497;-68
2023/03/28 08:03:35;;;;;;;17.33;15.83;;;3.10;99.90;;;;;;5090076;28;20521;-69
2023/03/28 08:06:04;;;;;;;16.20;14.97;;;3.10;99.90;;;;;;5089519;28;20944;-68
2023/03/28 08:08:31;;;;;;;15.97;14.50;;;3.30;99.90;;;;;;5087637;28;21076;-68
2023/03/28 08:10:59;;;;;;;15.73;14.40;;;3.40;99.90;;;;;;5085129;28;20946;-70
2023/03/28 08:13:26;;;;;;;15.40;14.10;;;3.40;99.90;;;;;;5083469;28;20493;-70
2023/03/28 08:15:56;;;;;;;17.53;12.93;;;3.60;99.90;;;;;;5089955;28;20465;-69
2023/03/28 08:18:24;;;;;;;15.67;14.20;;;3.70;99.90;;;;;;5090635;28;20470;-70
2023/03/28 08:20:59;;;;;;;16.13;12.93;;;3.80;99.90;;;;;;5094244;28;20469;-70
2023/03/28 08:23:27;;;;;;;13.97;12.90;;;3.90;99.90;;;;;;5090935;28;20473;-70
2023/03/28 08:26:03;;;;;;;26.17;13.97;;;3.90;99.90;;;;;;5090426;28;20605;-70
2023/03/28 08:28:32;;;;;;;13.87;12.67;;;4.00;99.90;;;;;;5085144;28;20491;-71
2023/03/28 08:30:59;;;;;;;13.00;12.00;;;4.20;99.90;;;;;;5084532;28;20497;-70
2023/03/28 08:33:27;;;;;;;20.13;12.30;;;4.30;99.90;;;;;;5088823;28;20837;-70
2023/03/28 08:35:56;;;;;;;16.33;12.77;;;4.30;99.90;;;;;;5088186;28;20466;-69
2023/03/28 08:38:23;;;;;;;32.07;13.20;;;4.40;99.90;;;;;;5090453;28;20527;-70
2023/03/28 08:40:59;;;;;;;13.27;11.87;;;4.50;99.90;;;;;;5088391;28;21004;-70
2023/03/28 08:43:46;;;;;;;21.13;11.73;;;4.50;99.90;;;;;;5088320;28;20483;-70
2023/03/28 08:46:16;;;;;;;11.17;10.07;;;4.80;99.90;;;;;;5088672;28;20637;-70
2023/03/28 08:48:45;;;;;;;11.03;9.93;;;5.00;99.90;;;;;;5090505;28;20459;-70
2023/03/28 08:51:19;;;;;;;13.27;10.50;;;5.20;99.90;;;;;;5081301;28;20454;-71
2023/03/28 08:53:51;;;;;;;10.53;9.60;;;5.40;99.90;;;;;;5091711;28;20885;-70
2023/03/28 08:56:18;;;;;;;12.20;11.07;;;5.50;99.90;;;;;;5088891;28;20457;-70
2023/03/28 08:58:57;;;;;;;12.63;11.17;;;5.70;99.90;;;;;;5087487;28;22432;-70
2023/03/28 09:01:28;;;;;;;12.40;11.07;;;5.80;99.90;;;;;;5083721;28;21001;-71
2023/03/28 09:03:55;;;;;;;13.37;12.27;;;6.00;99.90;;;;;;5093443;28;20477;-70
2023/03/28 09:06:30;;;;;;;13.37;12.27;;;6.20;99.90;;;;;;5092851;28;20978;-70
2023/03/28 09:09:12;;;;;;;13.33;12.27;;;6.20;99.90;;;;;;5094559;28;20453;-71
2023/03/28 09:11:54;;;;;;;16.63;14.20;;;6.30;99.90;;;;;;5093006;28;20961;-70
2023/03/28 09:14:41;;;;;;;16.63;13.80;;;6.40;99.90;;;;;;5087161;28;20556;-70
2023/03/28 09:17:13;;;;;;;15.03;13.90;;;6.40;99.90;;;;;;5090244;28;20799;-71
2023/03/28 09:19:55;;;;;;;48.03;20.63;;;6.30;99.90;;;;;;5090908;28;20470;-71
2023/03/28 09:22:32;;;;;;;16.53;15.00;;;6.60;99.90;;;;;;5094499;28;20463;-71
2023/03/28 09:25:17;;;;;;;31.87;17.80;;;6.70;99.90;;;;;;5088330;28;20493;-70
2023/03/28 09:27:54;;;;;;;18.63;16.47;;;6.80;99.90;;;;;;5087507;28;20506;-72
2023/03/28 09:30:24;;;;;;;16.23;15.23;;;6.90;99.90;;;;;;5094016;28;20462;-71
2023/03/28 09:32:54;;;;;;;19.10;17.30;;;7.10;99.90;;;;;;5077825;28;20520;-70
2023/03/28 09:35:24;;;;;;;18.23;16.70;;;7.70;99.90;;;;;;5095924;28;20472;-70
2023/03/28 09:37:54;;;;;;;18.80;17.33;;;8.50;99.90;;;;;;5077526;28;20556;-70
2023/03/28 09:40:23;;;;;;;18.37;16.80;;;9.00;99.90;;;;;;5088395;28;20879;-70
2023/03/28 09:42:57;;;;;;;19.27;17.80;;;9.30;99.90;;;;;;5081818;28;20477;-70
2023/03/28 09:45:36;;;;;;;17.90;16.50;;;9.30;99.90;;;;;;5091253;28;20497;-69
2023/03/28 09:48:04;;;;;;;19.37;17.70;;;9.50;99.90;;;;;;5077510;28;20473;-70
2023/03/28 09:50:31;;;;;;;18.13;16.83;;;9.60;99.90;;;;;;5087412;28;20905;-70
2023/03/28 09:52:59;;;;;;;18.63;17.33;;;9.50;99.90;;;;;;5078588;28;21010;-70
2023/03/28 09:55:29;;;;;;;19.70;18.20;;;9.60;99.90;;;;;;5086097;28;20979;-70
2023/03/28 09:58:03;;;;;;;18.83;17.50;;;9.90;99.90;;;;;;5080205;28;20462;-71
2023/03/28 10:00:34;;;;;;;17.77;16.40;;;10.10;99.90;;;;;;5084660;28;20468;-70
2023/03/28 10:03:02;;;;;;;18.00;16.20;;;10.40;99.90;;;;;;5084598;28;20553;-70
2023/03/28 10:05:35;;;;;;;17.87;16.50;;;10.60;99.90;;;;;;5087403;28;20883;-69
2023/03/28 10:08:06;;;;;;;18.07;16.63;;;10.80;99.90;;;;;;5087003;28;20466;-72
2023/03/28 10:10:33;;;;;;;18.80;17.03;;;10.50;97.60;;;;;;5094840;28;20962;-70
2023/03/28 10:13:03;;;;;;;19.00;17.70;;;9.40;98.00;;;;;;5084683;28;20498;-72
2023/03/28 10:15:34;;;;;;;17.60;16.50;;;9.60;98.80;;;;;;5086936;28;20877;-70
2023/03/28 10:18:03;;;;;;;18.13;17.10;;;10.10;97.30;;;;;;5089358;28;20476;-72
2023/03/28 10:20:36;;;;;;;19.40;17.73;;;10.30;97.10;;;;;;5087909;28;21087;-70
2023/03/28 10:23:05;;;;;;;18.30;17.10;;;10.60;96.40;;;;;;5088696;28;21682;-69
2023/03/28 10:25:37;;;;;;;18.23;17.13;;;10.90;96.60;;;;;;5085490;28;20481;-71
2023/03/28 10:28:06;;;;;;;18.50;17.20;;;11.00;90.00;;;;;;5094365;28;20457;-70
2023/03/28 10:30:35;;;;;;;19.13;17.50;;;10.60;88.30;;;;;;5090397;28;20458;-70
2023/03/28 10:33:20;;;;;;;19.90;18.70;;;10.40;89.60;;;;;;5086086;28;20457;-69
2023/03/28 10:35:53;;;;;;;18.93;17.90;;;9.80;89.40;;;;;;5086240;28;20472;-69
2023/03/28 10:38:23;;;;;;;19.53;17.57;;;9.70;91.30;;;;;;5092343;28;20646;-71
2023/03/28 10:41:00;;;;;;;18.63;17.20;;;9.90;90.70;;;;;;5084285;28;20868;-71
2023/03/28 10:43:33;;;;;;;18.07;17.07;;;10.40;90.70;;;;;;5088673;28;20489;-71
2023/03/28 10:46:02;;;;;;;19.07;17.93;;;10.70;87.90;;;;;;5086917;28;20599;-71
2023/03/28 10:48:35;;;;;;;18.80;17.70;;;10.50;84.10;;;;;;5086886;28;20897;-69
2023/03/28 10:51:07;;;;;;;18.90;17.83;;;10.60;83.70;;;;;;5087355;28;20494;-70
2023/03/28 10:54:10;;;;;;;19.70;18.30;;;10.70;83.80;;;;;;5091439;28;20546;-69
2023/03/28 10:56:41;;;;;;;19.30;18.27;;;10.50;82.30;;;;;;5087870;28;20465;-70
2023/03/28 10:59:16;;;;;;;19.17;18.17;;;10.80;81.50;;;;;;5085939;28;20453;-70
2023/03/28 11:01:59;;;;;;;18.90;17.67;;;11.00;80.40;;;;;;5092140;28;20450;-72
2023/03/28 11:04:39;;;;;;;20.37;18.73;;;11.40;76.30;;;;;;5086664;28;20531;-70
2023/03/28 11:07:12;;;;;;;19.63;18.50;;;11.40;76.20;;;;;;5085002;28;20502;-69
2023/03/28 11:09:50;;;;;;;20.63;19.13;;;11.70;75.80;;;;;;5084557;28;20956;-70
2023/03/28 11:12:33;;;;;;;19.53;18.23;;;12.00;72.20;;;;;;5089977;28;20469;-69
2023/03/28 11:15:10;;;;;;;19.93;18.63;;;12.00;71.90;;;;;;5088388;28;20967;-71
2023/03/28 11:17:51;;;;;;;18.80;17.83;;;11.70;71.50;;;;;;5084165;28;20470;-69
2023/03/28 11:20:37;;;;;;;19.67;18.37;;;12.00;72.30;;;;;;5082230;28;20946;-72
2023/03/28 11:23:22;;;;;;;19.60;18.47;;;11.90;72.40;;;;;;5087012;28;20503;-71
2023/03/28 11:25:57;;;;;;;20.00;18.57;;;12.10;70.50;;;;;;5085895;28;21698;-69
2023/03/28 11:28:33;;;;;;;19.20;18.20;;;12.00;70.10;;;;;;5092736;28;20983;-69
2023/03/28 11:31:01;;;;;;;19.37;17.93;;;11.70;70.60;;;;;;5088710;28;20855;-70
2023/03/28 11:33:36;;;;;;;19.33;18.23;;;11.90;74.50;;;;;;5097023;28;20461;-70
2023/03/28 11:36:07;;;;;;;19.97;18.87;;;12.30;73.40;;;;;;5090826;28;20460;-70
2023/03/28 11:38:37;;;;;;;19.90;18.50;;;12.70;70.80;;;;;;5085982;28;20549;-70
2023/03/28 11:41:12;;;;;;;19.40;18.20;;;13.30;66.00;;;;;;5091555;28;20461;-70
2023/03/28 11:43:44;;;;;;;18.60;17.23;;;14.00;66.60;;;;;;5089722;28;21053;-71
2023/03/28 11:46:16;;;;;;;18.50;17.40;;;14.30;66.30;;;;;;5087324;28;20489;-71
2023/03/28 11:48:48;;;;;;;18.37;17.37;;;14.80;61.50;;;;;;5090607;28;20453;-71
2023/03/28 11:51:19;;;;;;;19.00;17.70;;;15.30;58.70;;;;;;5090045;28;20825;-70
2023/03/28 11:53:53;;;;;;;18.10;17.10;;;15.70;57.30;;;;;;5086753;28;20464;-70
2023/03/28 11:56:36;;;;;;;21.13;19.20;;;15.50;55.30;;;;;;5089958;28;20468;-70
2023/03/28 11:59:07;;;;;;;33.70;24.20;;;15.00;54.20;;;;;;5086669;28;20453;-71
2023/03/28 12:01:41;;;;;;;19.77;18.57;;;15.60;53.10;;;;;;5086504;28;20473;-71
2023/03/28 12:04:14;;;;;;;18.10;16.90;;;15.70;50.70;;;;;;5088093;28;20519;-70
2023/03/28 12:06:46;;;;;;;18.47;17.10;;;15.60;51.50;;;;;;5085381;28;21014;-70
2023/03/28 12:09:19;;;;;;;18.50;17.23;;;15.00;50.70;;;;;;5087666;28;20515;-71
2023/03/28 12:11:53;;;;;;;18.80;17.50;;;15.50;54.70;;;;;;5098141;28;20458;-71
2023/03/28 12:14:32;;;;;;;19.43;18.13;;;15.30;51.10;;;;;;5090785;28;20476;-71
2023/03/28 12:17:00;;;;;;;17.90;17.00;;;15.20;50.10;;;;;;5092781;28;20453;-71
2023/03/28 12:19:33;;;;;;;18.40;17.40;;;15.10;50.50;;;;;;5089480;28;20472;-71
2023/03/28 12:22:07;;;;;;;18.80;17.53;;;15.60;50.50;;;;;;5088553;28;20822;-71
2023/03/28 12:24:42;;;;;;;18.37;17.37;;;16.10;52.80;;;;;;5090454;28;20836;-72
2023/03/28 12:27:18;;;;;;;17.63;16.60;;;16.10;48.10;;;;;;5095172;28;20552;-70
2023/03/28 12:29:51;;;;;;;18.20;17.20;;;16.30;49.80;;;;;;5094214;28;20831;-72
2023/03/28 12:32:33;;;;;;;17.83;16.73;;;16.90;48.70;;;;;;5090020;28;20487;-71
2023/03/28 12:35:10;;;;;;;18.30;16.90;;;17.00;47.20;;;;;;5092919;28;20573;-72
2023/03/28 12:37:42;;;;;;;18.77;17.50;;;17.20;47.50;;;;;;5089003;28;20461;-71
2023/03/28 12:40:22;;;;;;;18.53;17.33;;;16.70;46.10;;;;;;5089926;28;20848;-71
2023/03/28 12:42:52;;;;;;;17.93;16.93;;;16.20;47.20;;;;;;5088103;28;20497;-72
2023/03/28 12:45:26;;;;;;;18.70;17.40;;;15.80;47.30;;;;;;5090781;28;20991;-72
2023/03/28 12:47:58;;;;;;;18.83;17.50;;;15.60;47.90;;;;;;5095835;28;20471;-71
2023/03/28 12:50:30;;;;;;;18.67;17.47;;;15.70;46.80;;;;;;5087960;28;20473;-71
2023/03/28 12:52:58;;;;;;;19.00;17.77;;;15.30;46.60;;;;;;5089965;28;20542;-70
2023/03/28 12:55:43;;;;;;;18.40;17.30;;;14.50;47.10;;;;;;5094272;28;20952;-71